Terminal Aerodrome Forecast
Issued by NWS Wilmington, NC

Home | Current Version | Previous Version | Text Only | Print | Product List | Glossary On
Versions: 1 2 3 4 5 6 7 8 9 10 11 12 13 14
000
FTUS42 KILM 260520
TAFMYR
TAF
KMYR 260520Z 2606/2706 00000KT P6SM BKN045
     FM261100 03010KT P6SM BKN040
     FM270200 VRB03KT P6SM FEW250
      AMD LTD TO CLD VIS AND WIND TIL 261100=

USA.gov is the U.S. government's official web portal to all federal, state and local government web resources and services.